createdAt,value
2018-05-01T00:00:55.640Z,6.46
2018-05-01T00:01:55.606Z,6.49
2018-05-01T00:02:55.579Z,6.41
2018-05-01T00:03:55.558Z,6.46
2018-05-01T00:04:55.535Z,6.33
2018-05-01T00:05:55.499Z,6.35
2018-05-01T00:06:55.475Z,6.31
2018-05-01T00:07:55.452Z,6.33
2018-05-01T00:08:55.419Z,6.33
2018-05-01T00:09:55.399Z,6.36
2018-05-01T00:10:55.372Z,6.26
2018-05-01T00:11:55.344Z,6.27
2018-05-01T00:12:55.318Z,6.31
2018-05-01T00:13:55.288Z,6.30
2018-05-01T00:14:55.256Z,6.31
2018-05-01T00:15:55.239Z,6.22
2018-05-01T00:16:55.212Z,6.30
2018-05-01T00:17:55.178Z,6.31
2018-05-01T00:18:55.148Z,6.35
2018-05-01T00:19:55.132Z,6.36
2018-05-01T00:20:55.096Z,6.35
2018-05-01T00:21:55.073Z,6.33
2018-05-01T00:22:55.050Z,6.28
2018-05-01T00:23:55.014Z,6.31
2018-05-01T00:24:54.997Z,6.27
2018-05-01T00:25:54.958Z,6.20
2018-05-01T00:26:54.941Z,6.28
2018-05-01T00:27:54.910Z,6.19
2018-05-01T00:28:54.880Z,6.30
2018-05-01T00:29:54.860Z,6.22
2018-05-01T00:30:54.824Z,6.30
2018-05-01T00:31:54.804Z,6.22
2018-05-01T00:32:54.780Z,6.26
2018-05-01T00:33:54.748Z,6.22
2018-05-01T00:34:54.727Z,6.20
2018-05-01T00:35:54.694Z,6.28
2018-05-01T00:36:54.667Z,6.19
2018-05-01T00:37:54.638Z,6.24
2018-05-01T00:38:54.614Z,6.27
2018-05-01T00:39:54.591Z,6.22
2018-05-01T00:40:54.557Z,6.26
2018-05-01T00:41:54.536Z,6.22
2018-05-01T00:42:54.512Z,6.24
2018-05-01T00:43:54.478Z,6.17
2018-05-01T00:44:54.458Z,6.20
2018-05-01T00:45:54.420Z,6.27
2018-05-01T00:46:54.394Z,6.19
2018-05-01T00:47:54.375Z,6.19
2018-05-01T00:48:54.341Z,6.26
2018-05-01T00:49:54.321Z,6.26
2018-05-01T00:50:54.292Z,6.27
2018-05-01T00:51:54.268Z,6.16
2018-05-01T00:52:54.244Z,6.24
2018-05-01T00:53:54.211Z,6.24
2018-05-01T00:54:54.181Z,6.20
2018-05-01T00:55:54.159Z,6.26
2018-05-01T00:56:54.129Z,6.19
2018-05-01T00:57:54.101Z,6.08
2018-05-01T00:58:54.078Z,6.12
2018-05-01T00:59:54.058Z,6.16
2018-05-01T01:00:54.023Z,6.19
2018-05-01T01:01:53.994Z,6.09
2018-05-01T01:02:53.967Z,6.26
2018-05-01T01:03:53.942Z,6.16
2018-05-01T01:04:53.912Z,6.17
2018-05-01T01:05:53.891Z,6.12
2018-05-01T01:06:53.863Z,6.14
2018-05-01T01:07:53.833Z,6.14
2018-05-01T01:08:53.810Z,6.20
2018-05-01T01:09:53.773Z,6.16
2018-05-01T01:10:53.745Z,6.20
2018-05-01T01:11:53.730Z,6.17
2018-05-01T01:12:53.700Z,6.16
2018-05-01T01:13:53.676Z,6.19
2018-05-01T01:14:53.647Z,6.22
2018-05-01T01:15:53.612Z,6.14
2018-05-01T01:16:53.589Z,6.20
2018-05-01T01:17:53.566Z,6.27
2018-05-01T01:18:53.531Z,6.24
2018-05-01T01:19:53.513Z,6.22
2018-05-01T01:20:53.484Z,6.27
2018-05-01T01:21:53.458Z,6.26
2018-05-01T01:22:53.432Z,6.14
2018-05-01T01:23:53.410Z,6.17
2018-05-01T01:24:53.372Z,6.08
2018-05-01T01:25:53.351Z,6.09
2018-05-01T01:26:53.323Z,6.12
2018-05-01T01:27:53.295Z,6.09
2018-05-01T01:28:53.271Z,6.24
2018-05-01T01:29:53.242Z,6.16
2018-05-01T01:30:53.211Z,6.14
2018-05-01T01:31:53.185Z,6.14
2018-05-01T01:32:53.160Z,6.16
2018-05-01T01:33:53.137Z,6.16
2018-05-01T01:34:53.102Z,6.16
2018-05-01T01:35:53.081Z,6.14
2018-05-01T01:36:53.049Z,6.09
2018-05-01T01:37:53.028Z,6.09
2018-05-01T01:38:53.004Z,6.17
2018-05-01T01:39:52.965Z,6.19
2018-05-01T01:40:52.941Z,6.20
2018-05-01T01:41:52.913Z,6.22
2018-05-01T01:42:52.892Z,6.22
2018-05-01T01:43:52.865Z,6.24
2018-05-01T01:44:52.841Z,6.26
2018-05-01T01:45:52.815Z,6.27
2018-05-01T01:46:52.784Z,6.20
2018-05-01T01:47:52.751Z,6.22
2018-05-01T01:48:52.731Z,6.26
2018-05-01T01:49:52.700Z,6.19
2018-05-01T01:50:52.670Z,6.19
2018-05-01T01:51:52.653Z,6.26
2018-05-01T01:52:52.619Z,6.19
2018-05-01T01:53:52.592Z,6.19
2018-05-01T01:54:52.566Z,6.22
2018-05-01T01:55:52.537Z,6.26
2018-05-01T01:56:52.506Z,6.19
2018-05-01T01:57:52.481Z,6.14
2018-05-01T01:58:52.463Z,6.17
2018-05-01T01:59:52.432Z,6.17
2018-05-01T02:00:52.408Z,6.22
2018-05-01T02:01:52.379Z,6.24
2018-05-01T02:02:52.346Z,6.17
2018-05-01T02:03:52.330Z,6.22
2018-05-01T02:04:52.298Z,6.22
2018-05-01T02:05:52.270Z,6.27
2018-05-01T02:06:52.242Z,6.19
2018-05-01T02:07:52.220Z,6.20
2018-05-01T02:08:52.198Z,6.17
2018-05-01T02:09:52.158Z,6.19
2018-05-01T02:10:52.138Z,6.16
2018-05-01T02:11:52.115Z,6.19
2018-05-01T02:12:52.081Z,6.07
2018-05-01T02:13:52.059Z,6.22
2018-05-01T02:14:52.028Z,6.09
2018-05-01T02:15:52.005Z,6.14
2018-05-01T02:16:51.975Z,6.16
2018-05-01T02:17:51.949Z,6.16
2018-05-01T02:18:51.921Z,6.12
2018-05-01T02:19:51.892Z,6.09
2018-05-01T02:20:51.864Z,6.08
2018-05-01T02:21:51.846Z,6.11
2018-05-01T02:22:51.808Z,6.20
2018-05-01T02:23:51.789Z,6.20
2018-05-01T02:24:51.753Z,6.24
2018-05-01T02:25:51.732Z,6.11
2018-05-01T02:26:51.698Z,6.14
2018-05-01T02:27:51.676Z,6.07
2018-05-01T02:28:51.650Z,6.09
2018-05-01T02:29:51.619Z,6.08
2018-05-01T02:30:51.603Z,6.22
2018-05-01T02:31:51.569Z,6.19
2018-05-01T02:32:51.547Z,6.08
2018-05-01T02:33:51.615Z,6.24
2018-05-01T02:34:51.485Z,6.19
2018-05-01T02:35:51.462Z,6.11
2018-05-01T02:36:51.438Z,6.11
2018-05-01T02:37:51.404Z,6.26
2018-05-01T02:38:51.376Z,6.16
2018-05-01T02:39:51.357Z,6.07
2018-05-01T02:40:51.327Z,6.07
2018-05-01T02:41:51.301Z,6.11
2018-05-01T02:42:51.266Z,6.01
2018-05-01T02:43:51.258Z,6.08
2018-05-01T02:44:51.225Z,6.07
2018-05-01T02:45:51.190Z,6.09
2018-05-01T02:46:51.168Z,6.12
2018-05-01T02:47:51.134Z,6.08
2018-05-01T02:48:51.109Z,6.19
2018-05-01T02:49:51.083Z,6.05
2018-05-01T02:50:51.052Z,6.20
2018-05-01T02:51:51.033Z,6.19
2018-05-01T02:52:51.008Z,6.09
2018-05-01T02:53:50.973Z,6.11
2018-05-01T02:54:50.947Z,6.14
2018-05-01T02:55:50.927Z,6.17
2018-05-01T02:56:50.898Z,6.22
2018-05-01T02:57:50.862Z,6.07
2018-05-01T02:58:50.839Z,6.12
2018-05-01T02:59:50.820Z,6.08
2018-05-01T03:00:50.789Z,6.11
2018-05-01T03:01:50.761Z,6.12
2018-05-01T03:02:50.734Z,6.08
2018-05-01T03:03:50.704Z,6.12
2018-05-01T03:04:50.684Z,6.19
2018-05-01T03:05:50.652Z,6.22
2018-05-01T03:06:50.623Z,6.11
2018-05-01T03:07:50.603Z,6.11
2018-05-01T03:08:50.578Z,6.09
2018-05-01T03:09:50.570Z,6.05
2018-05-01T03:10:50.519Z,6.08
2018-05-01T03:11:50.491Z,6.14
2018-05-01T03:12:50.466Z,6.11
2018-05-01T03:13:50.435Z,6.11
2018-05-01T03:14:50.406Z,6.19
2018-05-01T03:15:50.382Z,6.09
2018-05-01T03:16:50.352Z,6.12
2018-05-01T03:17:50.341Z,6.08
2018-05-01T03:18:50.307Z,6.16
2018-05-01T03:19:50.272Z,6.05
2018-05-01T03:20:50.254Z,6.07
2018-05-01T03:21:50.224Z,6.07
2018-05-01T03:22:50.190Z,6.14
2018-05-01T03:23:50.179Z,6.07
2018-05-01T03:24:50.137Z,6.11
2018-05-01T03:25:50.117Z,6.14
2018-05-01T03:26:50.091Z,6.12
2018-05-01T03:27:50.056Z,6.12
2018-05-01T03:28:50.031Z,6.08
2018-05-01T03:29:50.008Z,6.16
2018-05-01T03:30:49.984Z,6.12
2018-05-01T03:31:49.953Z,6.09
2018-05-01T03:32:49.931Z,6.11
2018-05-01T03:33:49.891Z,6.09
2018-05-01T03:34:49.867Z,6.11
2018-05-01T03:35:49.849Z,6.16
2018-05-01T03:36:49.812Z,6.07
2018-05-01T03:37:49.792Z,6.09
2018-05-01T03:38:49.767Z,6.14
2018-05-01T03:39:49.744Z,6.16
2018-05-01T03:40:49.713Z,6.11
2018-05-01T03:41:49.677Z,6.17
2018-05-01T03:42:49.653Z,6.20
2018-05-01T03:43:49.634Z,6.09
2018-05-01T03:44:49.597Z,6.16
2018-05-01T03:45:49.580Z,6.17
2018-05-01T03:46:49.548Z,6.12
2018-05-01T03:47:49.518Z,6.12
2018-05-01T03:48:49.495Z,6.11
2018-05-01T03:49:49.464Z,6.16
2018-05-01T03:50:49.438Z,6.09
2018-05-01T03:51:49.413Z,6.17
2018-05-01T03:52:49.381Z,6.12
2018-05-01T03:53:49.362Z,6.07
2018-05-01T03:54:49.332Z,6.11
2018-05-01T03:55:49.396Z,6.09
2018-05-01T03:56:49.277Z,6.16
2018-05-01T03:57:49.251Z,6.17
2018-05-01T03:58:49.236Z,6.16
2018-05-01T03:59:49.197Z,6.19
2018-05-01T04:00:49.169Z,6.14
2018-05-01T04:01:49.144Z,6.24
2018-05-01T04:02:49.122Z,6.24
2018-05-01T04:03:49.086Z,6.19
2018-05-01T04:04:49.066Z,6.24
2018-05-01T04:05:49.032Z,6.16
2018-05-01T04:06:49.006Z,6.11
2018-05-01T04:07:48.986Z,6.11
2018-05-01T04:08:48.956Z,6.09
2018-05-01T04:09:48.931Z,6.28
2018-05-01T04:10:48.897Z,6.24
2018-05-01T04:11:48.875Z,6.20
2018-05-01T04:12:48.849Z,6.17
2018-05-01T04:13:48.813Z,6.08
2018-05-01T04:14:48.795Z,6.22
2018-05-01T04:15:48.762Z,6.20
2018-05-01T04:16:48.734Z,6.14
2018-05-01T04:17:48.715Z,6.20
2018-05-01T04:18:48.676Z,6.19
2018-05-01T04:19:48.654Z,6.19
2018-05-01T04:20:48.631Z,6.09
2018-05-01T04:21:48.601Z,6.09
2018-05-01T04:22:48.579Z,6.17
2018-05-01T04:23:48.546Z,6.22
2018-05-01T04:24:48.522Z,6.20
2018-05-01T04:25:48.490Z,6.24
2018-05-01T04:26:48.463Z,6.12
2018-05-01T04:27:48.444Z,6.24
2018-05-01T04:28:48.410Z,6.11
2018-05-01T04:29:48.389Z,6.24
2018-05-01T04:30:48.364Z,6.16
2018-05-01T04:31:48.333Z,6.26
2018-05-01T04:32:48.312Z,6.09
2018-05-01T04:33:48.279Z,6.20
2018-05-01T04:34:48.251Z,6.24
2018-05-01T04:35:48.221Z,6.19
2018-05-01T04:36:48.198Z,6.20
2018-05-01T04:37:48.172Z,6.16
2018-05-01T04:38:48.145Z,6.17
2018-05-01T04:39:48.115Z,6.11
2018-05-01T04:40:48.092Z,6.16
2018-05-01T04:41:48.076Z,6.11
2018-05-01T04:42:48.034Z,6.27
2018-05-01T04:43:48.008Z,6.19
2018-05-01T04:44:47.991Z,6.24
2018-05-01T04:45:47.949Z,6.19
2018-05-01T04:46:47.938Z,6.22
2018-05-01T04:47:47.906Z,6.26
2018-05-01T04:48:47.875Z,6.35
2018-05-01T04:49:47.843Z,6.24
2018-05-01T04:50:47.815Z,6.24
2018-05-01T04:51:47.876Z,6.33
2018-05-01T04:52:47.764Z,6.26
2018-05-01T04:53:47.739Z,6.28
2018-05-01T04:54:47.711Z,6.30
2018-05-01T04:55:47.681Z,6.31
2018-05-01T04:56:47.662Z,6.22
2018-05-01T04:57:47.632Z,6.22
2018-05-01T04:58:47.598Z,6.28
2018-05-01T04:59:47.582Z,6.33
2018-05-01T05:00:47.547Z,6.36
2018-05-01T05:01:47.528Z,6.33
2018-05-01T05:02:47.494Z,6.31
2018-05-01T05:03:47.472Z,6.31
2018-05-01T05:04:47.442Z,6.30
2018-05-01T05:05:47.417Z,6.33
2018-05-01T05:06:47.395Z,6.41
2018-05-01T05:07:47.360Z,6.35
2018-05-01T05:08:47.339Z,6.36
2018-05-01T05:09:47.309Z,6.41
2018-05-01T05:10:47.282Z,6.41
2018-05-01T05:11:47.275Z,6.45
2018-05-01T05:12:47.872Z,6.39
2018-05-01T05:13:47.199Z,6.35
2018-05-01T05:14:47.175Z,6.39
2018-05-01T05:15:47.145Z,6.39
2018-05-01T05:16:47.117Z,6.30
2018-05-01T05:17:47.092Z,6.31
2018-05-01T05:18:47.070Z,6.35
2018-05-01T05:19:47.062Z,6.30
2018-05-01T05:20:47.006Z,6.35
2018-05-01T05:21:46.986Z,6.39
2018-05-01T05:22:46.952Z,6.31
2018-05-01T05:23:46.928Z,6.35
2018-05-01T05:24:46.898Z,6.31
2018-05-01T05:25:46.879Z,6.36
2018-05-01T05:26:46.854Z,6.36
2018-05-01T05:27:46.818Z,6.36
2018-05-01T05:28:46.798Z,6.42
2018-05-01T05:29:46.770Z,6.45
2018-05-01T05:30:46.744Z,6.36
2018-05-01T05:31:46.711Z,6.35
2018-05-01T05:32:46.689Z,6.38
2018-05-01T05:33:46.658Z,6.41
2018-05-01T05:34:46.632Z,6.33
2018-05-01T05:35:46.606Z,6.41
2018-05-01T05:36:46.586Z,6.42
2018-05-01T05:37:46.548Z,6.44
2018-05-01T05:38:46.522Z,6.45
2018-05-01T05:39:46.500Z,6.42
2018-05-01T05:40:46.472Z,6.41
2018-05-01T05:41:46.447Z,6.46
2018-05-01T05:42:46.429Z,6.49
2018-05-01T05:43:46.394Z,6.45
2018-05-01T05:44:46.366Z,6.48
2018-05-01T05:45:46.344Z,6.46
2018-05-01T05:46:46.313Z,6.54
2018-05-01T05:47:46.280Z,6.45
2018-05-01T05:48:46.484Z,6.42
2018-05-01T05:49:46.223Z,6.52
2018-05-01T05:50:46.200Z,6.48
2018-05-01T05:51:46.179Z,6.49
2018-05-01T05:52:46.144Z,6.46
2018-05-01T05:53:46.132Z,6.48
2018-05-01T05:54:46.097Z,6.46
2018-05-01T05:55:46.070Z,6.44
2018-05-01T05:56:46.042Z,6.51
2018-05-01T05:57:46.018Z,6.44
2018-05-01T05:58:45.983Z,6.44
2018-05-01T05:59:45.999Z,6.44
2018-05-01T06:00:45.936Z,6.45
2018-05-01T06:01:45.904Z,6.46
2018-05-01T06:02:45.880Z,6.49
2018-05-01T06:03:45.851Z,6.44
2018-05-01T06:04:45.821Z,6.57
2018-05-01T06:05:45.800Z,6.60
2018-05-01T06:06:45.769Z,6.54
2018-05-01T06:07:45.822Z,6.48
2018-05-01T06:08:45.721Z,6.57
2018-05-01T06:09:45.688Z,6.60
2018-05-01T06:10:45.667Z,6.62
2018-05-01T06:11:45.637Z,6.59
2018-05-01T06:12:45.609Z,6.64
2018-05-01T06:13:45.623Z,6.64
2018-05-01T06:14:45.550Z,6.60
2018-05-01T06:15:45.534Z,6.56
2018-05-01T06:16:45.506Z,6.60
2018-05-01T06:17:45.480Z,6.59
2018-05-01T06:18:45.453Z,6.63
2018-05-01T06:19:45.420Z,6.67
2018-05-01T06:20:45.394Z,6.67
2018-05-01T06:21:45.376Z,6.60
2018-05-01T06:22:45.338Z,6.70
2018-05-01T06:23:45.326Z,6.70
2018-05-01T06:24:45.288Z,6.75
2018-05-01T06:25:45.260Z,6.74
2018-05-01T06:26:45.234Z,6.81
2018-05-01T06:27:45.211Z,6.78
2018-05-01T06:28:45.174Z,6.74
2018-05-01T06:29:45.155Z,6.72
2018-05-01T06:30:45.124Z,6.75
2018-05-01T06:31:45.100Z,6.77
2018-05-01T06:32:45.076Z,6.75
2018-05-01T06:33:45.044Z,6.81
2018-05-01T06:34:45.024Z,6.77
2018-05-01T06:35:44.988Z,6.75
2018-05-01T06:36:44.965Z,6.88
2018-05-01T06:37:44.934Z,6.84
2018-05-01T06:38:44.909Z,6.89
2018-05-01T06:39:44.886Z,6.88
2018-05-01T06:40:44.900Z,6.79
2018-05-01T06:41:44.830Z,6.81
2018-05-01T06:42:44.806Z,6.88
2018-05-01T06:43:44.776Z,6.88
2018-05-01T06:44:44.752Z,6.85
2018-05-01T06:45:44.720Z,6.93
2018-05-01T06:46:44.710Z,6.92
2018-05-01T06:47:44.676Z,6.87
2018-05-01T06:48:44.651Z,6.92
2018-05-01T06:49:44.611Z,6.95
2018-05-01T06:50:44.614Z,6.84
2018-05-01T06:51:44.564Z,6.88
2018-05-01T06:52:44.538Z,6.95
2018-05-01T06:53:44.510Z,6.96
2018-05-01T06:54:44.490Z,6.97
2018-05-01T06:55:44.454Z,6.95
2018-05-01T06:56:44.429Z,7.10
2018-05-01T06:57:44.461Z,7.03
2018-05-01T06:58:44.368Z,6.99
2018-05-01T06:59:44.346Z,7.05
2018-05-01T07:00:44.322Z,7.10
2018-05-01T07:01:44.289Z,7.06
2018-05-01T07:02:44.266Z,7.06
2018-05-01T07:03:44.235Z,7.14
2018-05-01T07:04:44.210Z,7.13
2018-05-01T07:05:44.188Z,7.18
2018-05-01T07:06:44.161Z,7.21
2018-05-01T07:07:44.136Z,7.31
2018-05-01T07:08:44.104Z,7.25
2018-05-01T07:09:44.072Z,7.32
2018-05-01T07:10:44.053Z,7.42
2018-05-01T07:11:44.027Z,7.42
2018-05-01T07:12:43.990Z,7.36
2018-05-01T07:13:43.975Z,7.45
2018-05-01T07:14:43.940Z,7.50
2018-05-01T07:15:43.931Z,7.42
2018-05-01T07:16:43.887Z,7.53
2018-05-01T07:17:43.870Z,7.56
2018-05-01T07:18:43.840Z,7.50
2018-05-01T07:19:43.806Z,7.57
2018-05-01T07:20:43.789Z,7.58
2018-05-01T07:21:43.751Z,7.63
2018-05-01T07:22:43.730Z,7.69
2018-05-01T07:23:43.700Z,7.66
2018-05-01T07:24:43.678Z,7.70
2018-05-01T07:25:43.646Z,7.72
2018-05-01T07:26:43.620Z,7.80
2018-05-01T07:27:43.596Z,7.83
2018-05-01T07:28:43.566Z,7.95
2018-05-01T07:29:43.546Z,7.97
2018-05-01T07:30:43.519Z,7.88
2018-05-01T07:31:43.483Z,8.01
2018-05-01T07:32:43.472Z,8.05
2018-05-01T07:33:43.428Z,8.16
2018-05-01T07:34:43.404Z,8.13
2018-05-01T07:35:43.385Z,8.13
2018-05-01T07:36:43.353Z,8.27
2018-05-01T07:37:43.334Z,8.18
2018-05-01T07:38:43.306Z,8.31
2018-05-01T07:39:43.269Z,8.38
2018-05-01T07:40:43.252Z,8.41
2018-05-01T07:41:43.275Z,8.45
2018-05-01T07:42:43.192Z,8.44
2018-05-01T07:43:43.172Z,8.46
2018-05-01T07:44:43.139Z,8.41
2018-05-01T07:45:43.118Z,8.49
2018-05-01T07:46:43.091Z,8.58
2018-05-01T07:47:43.061Z,8.58
2018-05-01T07:48:43.037Z,8.55
2018-05-01T07:49:43.010Z,8.60
2018-05-01T07:50:42.981Z,8.67
2018-05-01T07:51:42.957Z,8.78
2018-05-01T07:52:42.929Z,8.79
2018-05-01T07:53:42.903Z,8.85
2018-05-01T07:54:42.871Z,8.85
2018-05-01T07:55:42.855Z,8.84
2018-05-01T07:56:42.822Z,8.84
2018-05-01T07:57:42.793Z,8.92
2018-05-01T07:58:42.775Z,8.92
2018-05-01T07:59:42.745Z,8.97
2018-05-01T08:00:42.720Z,9.00
2018-05-01T08:01:42.686Z,9.02
2018-05-01T08:02:42.665Z,8.99
2018-05-01T08:03:42.639Z,9.14
2018-05-01T08:04:42.617Z,9.11
2018-05-01T08:05:42.579Z,8.99
2018-05-01T08:06:42.556Z,8.99
2018-05-01T08:07:42.528Z,8.97
2018-05-01T08:08:42.549Z,9.00
2018-05-01T08:09:42.481Z,8.88
2018-05-01T08:10:42.460Z,9.04
2018-05-01T08:11:42.419Z,8.91
2018-05-01T08:12:42.401Z,9.00
2018-05-01T08:13:42.373Z,8.92
2018-05-01T08:14:42.340Z,9.03
2018-05-01T08:15:42.315Z,9.10
2018-05-01T08:16:42.288Z,9.19
2018-05-01T08:17:42.268Z,9.16
2018-05-01T08:18:42.276Z,9.28
2018-05-01T08:19:42.215Z,9.31
2018-05-01T08:20:42.182Z,9.43
2018-05-01T08:21:42.164Z,9.44
2018-05-01T08:22:42.193Z,9.54
2018-05-01T08:23:42.123Z,9.55
2018-05-01T08:24:42.174Z,9.61
2018-05-01T08:25:42.047Z,9.74
2018-05-01T08:26:42.026Z,9.76
2018-05-01T08:27:42.049Z,9.84
2018-05-01T08:28:41.975Z,9.95
2018-05-01T08:29:41.944Z,9.99
2018-05-01T08:30:41.929Z,10.10
2018-05-01T08:31:41.899Z,10.07
2018-05-01T08:32:41.876Z,10.09
2018-05-01T08:33:41.837Z,10.07
2018-05-01T08:34:41.821Z,10.15
2018-05-01T08:35:41.786Z,10.33
2018-05-01T08:36:41.767Z,10.28
2018-05-01T08:37:41.787Z,10.26
2018-05-01T08:38:41.704Z,10.10
2018-05-01T08:39:41.686Z,10.34
2018-05-01T08:40:41.654Z,10.17
2018-05-01T08:41:41.632Z,10.19
2018-05-01T08:42:41.605Z,10.07
2018-05-01T08:43:41.572Z,10.04
2018-05-01T08:44:41.547Z,10.10
2018-05-01T08:45:41.525Z,10.17
2018-05-01T08:46:41.498Z,10.25
2018-05-01T08:47:41.470Z,10.40
2018-05-01T08:48:41.442Z,10.35
2018-05-01T08:49:41.422Z,10.25
2018-05-01T08:50:41.397Z,10.15
2018-05-01T08:51:41.366Z,10.12
2018-05-01T08:52:41.342Z,10.01
2018-05-01T08:53:41.311Z,10.13
2018-05-01T08:54:41.285Z,10.13
2018-05-01T08:55:41.260Z,10.25
2018-05-01T08:56:41.230Z,10.34
2018-05-01T08:57:41.209Z,10.53
2018-05-01T08:58:41.176Z,10.59
2018-05-01T08:59:41.158Z,10.61
2018-05-01T09:00:41.124Z,10.60
2018-05-01T09:01:41.098Z,10.68
2018-05-01T09:02:41.072Z,10.63
2018-05-01T09:03:41.096Z,10.64
2018-05-01T09:04:41.022Z,10.60
2018-05-01T09:05:41.013Z,10.76
2018-05-01T09:06:40.973Z,10.72
2018-05-01T09:07:41.559Z,10.82
2018-05-01T09:08:40.917Z,10.87
2018-05-01T09:09:40.889Z,10.97
2018-05-01T09:10:40.860Z,11.05
2018-05-01T09:11:40.841Z,11.00
2018-05-01T09:12:40.813Z,11.00
2018-05-01T09:13:40.785Z,10.97
2018-05-01T09:14:40.761Z,10.76
2018-05-01T09:15:40.744Z,10.86
2018-05-01T09:16:40.711Z,10.74
2018-05-01T09:17:40.712Z,10.74
2018-05-01T09:18:40.648Z,10.71
2018-05-01T09:19:40.626Z,10.69
2018-05-01T09:20:40.604Z,10.63
2018-05-01T09:21:40.572Z,10.64
2018-05-01T09:22:40.552Z,10.56
2018-05-01T09:23:40.519Z,10.63
2018-05-01T09:24:40.501Z,10.61
2018-05-01T09:25:40.548Z,10.67
2018-05-01T09:26:40.441Z,10.57
2018-05-01T09:27:40.416Z,10.51
2018-05-01T09:28:40.388Z,10.48
2018-05-01T09:29:40.376Z,10.56
2018-05-01T09:30:40.333Z,10.49
2018-05-01T09:31:40.316Z,10.40
2018-05-01T09:32:40.287Z,10.53
2018-05-01T09:33:40.256Z,10.59
2018-05-01T09:34:40.233Z,10.72
2018-05-01T09:35:40.207Z,10.71
2018-05-01T09:36:40.178Z,10.79
2018-05-01T09:37:40.149Z,11.04
2018-05-01T09:38:40.130Z,10.97
2018-05-01T09:39:40.101Z,10.87
2018-05-01T09:40:40.077Z,11.00
2018-05-01T09:41:40.048Z,11.00
2018-05-01T09:42:40.020Z,11.00
2018-05-01T09:43:39.999Z,11.05
2018-05-01T09:44:39.986Z,11.17
2018-05-01T09:45:39.972Z,11.14
2018-05-01T09:46:39.915Z,11.12
2018-05-01T09:47:39.938Z,11.14
2018-05-01T09:48:39.865Z,11.17
2018-05-01T09:49:39.841Z,11.25
2018-05-01T09:50:39.806Z,11.27
2018-05-01T09:51:39.783Z,11.26
2018-05-01T09:52:39.760Z,11.25
2018-05-01T09:53:39.741Z,11.47
2018-05-01T09:54:39.708Z,11.55
2018-05-01T09:55:39.680Z,11.65
2018-05-01T09:56:39.668Z,11.52
2018-05-01T09:57:39.644Z,11.50
2018-05-01T09:58:39.601Z,11.35
2018-05-01T09:59:39.578Z,11.45
2018-05-01T10:00:39.554Z,11.51
2018-05-01T10:01:39.546Z,11.52
2018-05-01T10:02:39.499Z,11.54
2018-05-01T10:03:39.472Z,11.43
2018-05-01T10:04:39.443Z,11.52
2018-05-01T10:05:39.417Z,11.51
2018-05-01T10:06:39.401Z,11.47
2018-05-01T10:07:39.370Z,11.48
2018-05-01T10:08:39.350Z,11.48
2018-05-01T10:09:39.310Z,11.55
2018-05-01T10:10:39.294Z,11.57
2018-05-01T10:11:39.262Z,11.48
2018-05-01T10:12:39.237Z,11.44
2018-05-01T10:13:39.247Z,11.55
2018-05-01T10:14:39.181Z,11.57
2018-05-01T10:15:39.165Z,11.66
2018-05-01T10:16:39.308Z,11.52
2018-05-01T10:17:39.185Z,11.65
2018-05-01T10:18:39.088Z,11.54
2018-05-01T10:19:39.105Z,11.59
2018-05-01T10:20:39.130Z,11.47
2018-05-01T10:21:39.522Z,11.47
2018-05-01T10:22:38.979Z,11.43
2018-05-01T10:23:39.437Z,11.50
2018-05-01T10:24:39.084Z,11.48
2018-05-01T10:25:39.456Z,11.51
2018-05-01T10:26:38.875Z,11.66
2018-05-01T10:27:38.847Z,11.78
2018-05-01T10:28:38.851Z,11.81
2018-05-01T10:29:38.795Z,11.84
2018-05-01T10:30:38.768Z,12.02
2018-05-01T10:31:38.744Z,11.99
2018-05-01T10:32:38.720Z,11.99
2018-05-01T10:33:38.693Z,11.97
2018-05-01T10:34:38.666Z,12.17
2018-05-01T10:35:38.660Z,12.15
2018-05-01T10:36:38.610Z,12.21
2018-05-01T10:37:38.584Z,12.17
2018-05-01T10:38:38.594Z,12.24
2018-05-01T10:39:38.533Z,12.06
2018-05-01T10:40:38.513Z,12.04
2018-05-01T10:41:38.561Z,11.97
2018-05-01T10:42:38.461Z,12.04
2018-05-01T10:43:38.429Z,11.99
2018-05-01T10:44:38.416Z,11.99
2018-05-01T10:45:38.378Z,12.07
2018-05-01T10:46:38.348Z,12.06
2018-05-01T10:47:38.332Z,12.10
2018-05-01T10:48:38.336Z,12.12
2018-05-01T10:49:38.294Z,12.27
2018-05-01T10:50:38.251Z,12.15
2018-05-01T10:51:38.230Z,12.06
2018-05-01T10:52:38.213Z,12.17
2018-05-01T10:53:38.177Z,12.13
2018-05-01T10:54:38.237Z,12.24
2018-05-01T10:55:38.128Z,12.28
2018-05-01T10:56:38.109Z,12.25
2018-05-01T10:57:38.075Z,12.40
2018-05-01T10:58:38.049Z,12.46
2018-05-01T10:59:38.016Z,12.58
2018-05-01T11:00:38.037Z,12.68
2018-05-01T11:01:37.969Z,12.53
2018-05-01T11:02:37.938Z,12.55
2018-05-01T11:03:37.914Z,12.46
2018-05-01T11:04:37.892Z,12.39
2018-05-01T11:05:37.858Z,12.27
2018-05-01T11:06:37.842Z,12.12
2018-05-01T11:07:37.807Z,12.12
2018-05-01T11:08:37.791Z,12.17
2018-05-01T11:09:37.753Z,12.24
2018-05-01T11:10:37.733Z,12.39
2018-05-01T11:11:37.704Z,12.49
2018-05-01T11:12:37.681Z,12.47
2018-05-01T11:13:37.665Z,12.57
2018-05-01T11:14:37.635Z,12.55
2018-05-01T11:15:37.610Z,12.73
2018-05-01T11:16:37.582Z,12.68
2018-05-01T11:17:37.549Z,12.62
2018-05-01T11:18:37.524Z,12.72
2018-05-01T11:19:37.500Z,12.68
2018-05-01T11:20:37.483Z,12.68
2018-05-01T11:21:37.448Z,12.76
2018-05-01T11:22:37.422Z,12.70
2018-05-01T11:23:37.394Z,12.53
2018-05-01T11:24:37.400Z,12.55
2018-05-01T11:25:37.348Z,12.68
2018-05-01T11:26:37.325Z,12.76
2018-05-01T11:27:37.289Z,12.78
2018-05-01T11:28:37.308Z,12.75
2018-05-01T11:29:37.245Z,12.72
2018-05-01T11:30:37.225Z,12.55
2018-05-01T11:31:37.186Z,12.55
2018-05-01T11:32:37.171Z,12.55
2018-05-01T11:33:37.208Z,12.62
2018-05-01T11:34:37.108Z,12.65
2018-05-01T11:35:37.091Z,12.54
2018-05-01T11:36:37.067Z,12.58
2018-05-01T11:37:37.040Z,12.46
2018-05-01T11:38:37.009Z,12.43
2018-05-01T11:39:37.014Z,12.46
2018-05-01T11:40:36.988Z,12.46
2018-05-01T11:41:36.952Z,12.60
2018-05-01T11:42:36.942Z,12.62
2018-05-01T11:43:36.931Z,12.65
2018-05-01T11:44:36.865Z,12.75
2018-05-01T11:45:36.827Z,12.78
2018-05-01T11:46:36.799Z,12.72
2018-05-01T11:47:36.781Z,12.82
2018-05-01T11:48:36.754Z,12.87
2018-05-01T11:49:36.727Z,12.93
2018-05-01T11:50:36.708Z,12.98
2018-05-01T11:51:36.674Z,13.03
2018-05-01T11:52:36.648Z,13.13
2018-05-01T11:53:36.624Z,13.15
2018-05-01T11:54:36.599Z,13.12
2018-05-01T11:55:36.570Z,13.22
2018-05-01T11:56:36.546Z,13.20
2018-05-01T11:57:36.519Z,13.15
2018-05-01T11:58:36.494Z,13.04
2018-05-01T11:59:36.475Z,12.98
2018-05-01T12:00:36.448Z,13.13
2018-05-01T12:01:36.417Z,13.05
2018-05-01T12:02:36.469Z,13.01
2018-05-01T12:03:36.368Z,13.03
2018-05-01T12:04:36.341Z,13.00
2018-05-01T12:05:36.320Z,13.12
2018-05-01T12:06:36.288Z,13.01
2018-05-01T12:07:36.262Z,13.11
2018-05-01T12:08:36.243Z,13.09
2018-05-01T12:09:36.213Z,13.28
2018-05-01T12:10:36.197Z,13.38
2018-05-01T12:11:36.165Z,13.47
2018-05-01T12:12:36.140Z,13.57
2018-05-01T12:13:36.109Z,13.56
2018-05-01T12:14:36.080Z,13.67
2018-05-01T12:15:36.063Z,13.63
2018-05-01T12:16:36.033Z,13.71
2018-05-01T12:17:36.011Z,13.87
2018-05-01T12:18:36.019Z,13.90
2018-05-01T12:19:35.958Z,13.72
2018-05-01T12:20:35.931Z,13.72
2018-05-01T12:21:35.903Z,13.92
2018-05-01T12:22:35.876Z,13.93
2018-05-01T12:23:35.937Z,13.95
2018-05-01T12:24:35.833Z,13.90
2018-05-01T12:25:35.805Z,13.87
2018-05-01T12:26:35.778Z,13.87
2018-05-01T12:27:35.752Z,13.79
2018-05-01T12:28:35.733Z,13.70
2018-05-01T12:29:35.701Z,13.71
2018-05-01T12:30:35.674Z,13.83
2018-05-01T12:31:35.651Z,13.71
2018-05-01T12:32:35.626Z,13.89
2018-05-01T12:33:35.604Z,14.04
2018-05-01T12:34:35.580Z,14.04
2018-05-01T12:35:35.542Z,14.07
2018-05-01T12:36:35.632Z,14.23
2018-05-01T12:37:35.496Z,14.25
2018-05-01T12:38:35.467Z,14.29
2018-05-01T12:39:35.451Z,14.20
2018-05-01T12:40:35.415Z,14.14
2018-05-01T12:41:35.399Z,14.20
2018-05-01T12:42:35.376Z,14.29
2018-05-01T12:43:35.341Z,14.36
2018-05-01T12:44:35.325Z,14.29
2018-05-01T12:45:35.286Z,14.29
2018-05-01T12:46:35.268Z,14.22
2018-05-01T12:47:35.246Z,14.18
2018-05-01T12:48:35.285Z,14.04
2018-05-01T12:49:35.190Z,13.93
2018-05-01T12:50:35.166Z,13.93
2018-05-01T12:51:35.141Z,13.99
2018-05-01T12:52:35.115Z,14.00
2018-05-01T12:53:35.094Z,14.08
2018-05-01T12:54:35.069Z,14.29
2018-05-01T12:55:35.037Z,14.28
2018-05-01T12:56:35.013Z,14.23
2018-05-01T12:57:34.988Z,14.28
2018-05-01T12:58:34.960Z,14.29
2018-05-01T12:59:34.943Z,14.22
2018-05-01T13:00:34.963Z,14.26
2018-05-01T13:01:34.890Z,14.25
2018-05-01T13:02:34.861Z,14.15
2018-05-01T13:03:34.831Z,14.11
2018-05-01T13:04:34.814Z,14.23
2018-05-01T13:05:34.780Z,14.14
2018-05-01T13:06:34.761Z,14.23
2018-05-01T13:07:34.728Z,14.28
2018-05-01T13:08:34.711Z,14.43
2018-05-01T13:09:34.679Z,14.32